sensor_id;sensor_type;location;lat;lon;timestamp;P1;P2;P0
63305;PMS5003;50735;52.060;1.248;2023-05-07T00:02:25;34;28;
63305;PMS5003;50735;52.060;1.248;2023-05-07T00:04:56;32;29;
63305;PMS5003;50735;52.060;1.248;2023-05-07T00:07:28;35;31;
63305;PMS5003;50735;52.060;1.248;2023-05-07T00:10:00;32;30;
63305;PMS5003;50735;52.060;1.248;2023-05-07T00:12:32;29;26;
63305;PMS5003;50735;52.060;1.248;2023-05-07T00:15:05;37;31;
63305;PMS5003;50735;52.060;1.248;2023-05-07T00:17:37;28;25;
63305;PMS5003;50735;52.060;1.248;2023-05-07T00:20:09;37;31;
63305;PMS5003;50735;52.060;1.248;2023-05-07T00:22:42;34;27;
63305;PMS5003;50735;52.060;1.248;2023-05-07T00:25:14;36;32;
63305;PMS5003;50735;52.060;1.248;2023-05-07T00:27:46;40;35;
63305;PMS5003;50735;52.060;1.248;2023-05-07T00:30:17;29;26;
63305;PMS5003;50735;52.060;1.248;2023-05-07T00:32:49;32;29;
63305;PMS5003;50735;52.060;1.248;2023-05-07T00:35:21;38;30;
63305;PMS5003;50735;52.060;1.248;2023-05-07T00:37:53;36;35;
63305;PMS5003;50735;52.060;1.248;2023-05-07T00:40:25;35;34;
63305;PMS5003;50735;52.060;1.248;2023-05-07T00:42:57;32;29;
63305;PMS5003;50735;52.060;1.248;2023-05-07T00:45:29;32;28;
63305;PMS5003;50735;52.060;1.248;2023-05-07T00:48:01;36;28;
63305;PMS5003;50735;52.060;1.248;2023-05-07T00:50:34;38;34;
63305;PMS5003;50735;52.060;1.248;2023-05-07T00:53:07;34;33;
63305;PMS5003;50735;52.060;1.248;2023-05-07T00:55:39;40;36;
63305;PMS5003;50735;52.060;1.248;2023-05-07T00:58:11;39;34;
63305;PMS5003;50735;52.060;1.248;2023-05-07T01:00:43;37;34;
63305;PMS5003;50735;52.060;1.248;2023-05-07T01:03:14;42;35;
63305;PMS5003;50735;52.060;1.248;2023-05-07T01:05:47;44;38;
63305;PMS5003;50735;52.060;1.248;2023-05-07T01:08:20;43;35;
63305;PMS5003;50735;52.060;1.248;2023-05-07T01:10:53;41;35;
63305;PMS5003;50735;52.060;1.248;2023-05-07T01:13:27;42;35;
63305;PMS5003;50735;52.060;1.248;2023-05-07T01:15:58;35;35;
63305;PMS5003;50735;52.060;1.248;2023-05-07T01:18:31;45;37;
63305;PMS5003;50735;52.060;1.248;2023-05-07T01:21:03;35;28;
63305;PMS5003;50735;52.060;1.248;2023-05-07T01:23:36;36;30;
63305;PMS5003;50735;52.060;1.248;2023-05-07T01:26:09;49;37;
63305;PMS5003;50735;52.060;1.248;2023-05-07T01:28:41;39;33;
63305;PMS5003;50735;52.060;1.248;2023-05-07T01:31:12;31;31;
63305;PMS5003;50735;52.060;1.248;2023-05-07T01:33:45;42;34;
63305;PMS5003;50735;52.060;1.248;2023-05-07T01:36:21;37;32;
63305;PMS5003;50735;52.060;1.248;2023-05-07T01:38:54;41;33;
63305;PMS5003;50735;52.060;1.248;2023-05-07T01:41:27;37;34;
63305;PMS5003;50735;52.060;1.248;2023-05-07T01:43:59;38;32;
63305;PMS5003;50735;52.060;1.248;2023-05-07T01:46:31;43;36;
63305;PMS5003;50735;52.060;1.248;2023-05-07T01:49:04;43;40;
63305;PMS5003;50735;52.060;1.248;2023-05-07T01:51:36;32;29;
63305;PMS5003;50735;52.060;1.248;2023-05-07T01:54:08;34;31;
63305;PMS5003;50735;52.060;1.248;2023-05-07T01:56:40;33;31;
63305;PMS5003;50735;52.060;1.248;2023-05-07T01:59:12;34;33;
63305;PMS5003;50735;52.060;1.248;2023-05-07T02:01:44;42;31;
63305;PMS5003;50735;52.060;1.248;2023-05-07T02:04:16;37;32;
63305;PMS5003;50735;52.060;1.248;2023-05-07T02:06:48;35;34;
63305;PMS5003;50735;52.060;1.248;2023-05-07T02:09:20;35;33;
63305;PMS5003;50735;52.060;1.248;2023-05-07T02:11:52;35;29;
63305;PMS5003;50735;52.060;1.248;2023-05-07T02:14:23;38;31;
63305;PMS5003;50735;52.060;1.248;2023-05-07T02:16:56;40;34;
63305;PMS5003;50735;52.060;1.248;2023-05-07T02:19:28;36;30;
63305;PMS5003;50735;52.060;1.248;2023-05-07T02:22:00;41;37;
63305;PMS5003;50735;52.060;1.248;2023-05-07T02:24:31;43;36;
63305;PMS5003;50735;52.060;1.248;2023-05-07T02:27:03;32;31;
63305;PMS5003;50735;52.060;1.248;2023-05-07T02:29:36;35;28;
63305;PMS5003;50735;52.060;1.248;2023-05-07T02:32:07;38;32;
63305;PMS5003;50735;52.060;1.248;2023-05-07T02:34:39;35;29;
63305;PMS5003;50735;52.060;1.248;2023-05-07T02:37:11;33;27;
63305;PMS5003;50735;52.060;1.248;2023-05-07T02:39:43;40;38;
63305;PMS5003;50735;52.060;1.248;2023-05-07T02:42:14;38;31;
63305;PMS5003;50735;52.060;1.248;2023-05-07T02:44:46;36;31;
63305;PMS5003;50735;52.060;1.248;2023-05-07T02:47:18;28;28;
63305;PMS5003;50735;52.060;1.248;2023-05-07T02:49:49;39;31;
63305;PMS5003;50735;52.060;1.248;2023-05-07T02:52:21;35;31;
63305;PMS5003;50735;52.060;1.248;2023-05-07T02:54:54;32;29;
63305;PMS5003;50735;52.060;1.248;2023-05-07T02:57:25;30;28;
63305;PMS5003;50735;52.060;1.248;2023-05-07T02:59:58;30;27;
63305;PMS5003;50735;52.060;1.248;2023-05-07T03:02:30;36;33;
63305;PMS5003;50735;52.060;1.248;2023-05-07T03:05:02;34;32;
63305;PMS5003;50735;52.060;1.248;2023-05-07T03:07:34;31;26;
63305;PMS5003;50735;52.060;1.248;2023-05-07T03:10:06;39;32;
63305;PMS5003;50735;52.060;1.248;2023-05-07T03:12:39;36;36;
63305;PMS5003;50735;52.060;1.248;2023-05-07T03:15:11;34;29;
63305;PMS5003;50735;52.060;1.248;2023-05-07T03:17:43;36;29;
63305;PMS5003;50735;52.060;1.248;2023-05-07T03:20:15;39;31;
63305;PMS5003;50735;52.060;1.248;2023-05-07T03:22:47;27;27;
63305;PMS5003;50735;52.060;1.248;2023-05-07T03:25:19;38;32;
63305;PMS5003;50735;52.060;1.248;2023-05-07T03:27:51;40;31;
63305;PMS5003;50735;52.060;1.248;2023-05-07T03:30:23;33;28;
63305;PMS5003;50735;52.060;1.248;2023-05-07T03:32:55;33;29;
63305;PMS5003;50735;52.060;1.248;2023-05-07T03:35:27;36;31;
63305;PMS5003;50735;52.060;1.248;2023-05-07T03:37:59;33;31;
63305;PMS5003;50735;52.060;1.248;2023-05-07T03:40:31;37;32;
63305;PMS5003;50735;52.060;1.248;2023-05-07T03:43:03;29;28;
63305;PMS5003;50735;52.060;1.248;2023-05-07T03:45:36;31;29;
63305;PMS5003;50735;52.060;1.248;2023-05-07T03:48:08;34;31;
63305;PMS5003;50735;52.060;1.248;2023-05-07T03:50:40;25;22;
63305;PMS5003;50735;52.060;1.248;2023-05-07T03:53:12;41;36;
63305;PMS5003;50735;52.060;1.248;2023-05-07T03:55:43;39;36;
63305;PMS5003;50735;52.060;1.248;2023-05-07T03:58:15;37;33;
63305;PMS5003;50735;52.060;1.248;2023-05-07T04:00:47;40;38;
63305;PMS5003;50735;52.060;1.248;2023-05-07T04:03:19;36;32;
63305;PMS5003;50735;52.060;1.248;2023-05-07T04:05:51;38;31;
63305;PMS5003;50735;52.060;1.248;2023-05-07T04:08:23;40;34;
63305;PMS5003;50735;52.060;1.248;2023-05-07T04:10:55;31;31;
63305;PMS5003;50735;52.060;1.248;2023-05-07T04:13:27;35;35;
63305;PMS5003;50735;52.060;1.248;2023-05-07T04:16:01;33;27;
63305;PMS5003;50735;52.060;1.248;2023-05-07T04:18:34;33;33;
63305;PMS5003;50735;52.060;1.248;2023-05-07T04:21:07;36;32;
63305;PMS5003;50735;52.060;1.248;2023-05-07T04:23:45;37;34;
63305;PMS5003;50735;52.060;1.248;2023-05-07T04:26:18;34;28;
63305;PMS5003;50735;52.060;1.248;2023-05-07T04:28:49;32;31;
63305;PMS5003;50735;52.060;1.248;2023-05-07T04:31:21;30;29;
63305;PMS5003;50735;52.060;1.248;2023-05-07T04:33:53;39;30;
63305;PMS5003;50735;52.060;1.248;2023-05-07T04:36:24;34;34;
63305;PMS5003;50735;52.060;1.248;2023-05-07T04:38:56;33;30;
63305;PMS5003;50735;52.060;1.248;2023-05-07T04:41:28;32;29;
63305;PMS5003;50735;52.060;1.248;2023-05-07T04:44:00;25;25;
63305;PMS5003;50735;52.060;1.248;2023-05-07T04:46:32;35;27;
63305;PMS5003;50735;52.060;1.248;2023-05-07T04:49:03;34;34;
63305;PMS5003;50735;52.060;1.248;2023-05-07T04:51:35;42;33;
63305;PMS5003;50735;52.060;1.248;2023-05-07T04:54:08;43;35;
63305;PMS5003;50735;52.060;1.248;2023-05-07T04:56:40;32;32;
63305;PMS5003;50735;52.060;1.248;2023-05-07T04:59:12;40;34;
63305;PMS5003;50735;52.060;1.248;2023-05-07T05:01:43;31;27;
63305;PMS5003;50735;52.060;1.248;2023-05-07T05:04:15;30;27;
63305;PMS5003;50735;52.060;1.248;2023-05-07T05:06:47;32;32;
63305;PMS5003;50735;52.060;1.248;2023-05-07T05:09:19;35;30;
63305;PMS5003;50735;52.060;1.248;2023-05-07T05:11:50;34;29;
63305;PMS5003;50735;52.060;1.248;2023-05-07T05:14:22;31;31;
63305;PMS5003;50735;52.060;1.248;2023-05-07T05:16:54;36;30;
63305;PMS5003;50735;52.060;1.248;2023-05-07T05:19:26;31;28;
63305;PMS5003;50735;52.060;1.248;2023-05-07T05:21:58;30;29;
63305;PMS5003;50735;52.060;1.248;2023-05-07T05:24:30;29;29;
63305;PMS5003;50735;52.060;1.248;2023-05-07T05:27:02;34;28;
63305;PMS5003;50735;52.060;1.248;2023-05-07T05:29:35;37;31;
63305;PMS5003;50735;52.060;1.248;2023-05-07T05:32:08;35;32;
63305;PMS5003;50735;52.060;1.248;2023-05-07T05:34:40;32;26;
63305;PMS5003;50735;52.060;1.248;2023-05-07T05:37:11;38;32;
63305;PMS5003;50735;52.060;1.248;2023-05-07T05:39:43;24;23;
63305;PMS5003;50735;52.060;1.248;2023-05-07T05:42:15;28;27;
63305;PMS5003;50735;52.060;1.248;2023-05-07T05:44:47;40;32;
63305;PMS5003;50735;52.060;1.248;2023-05-07T05:47:19;32;29;
63305;PMS5003;50735;52.060;1.248;2023-05-07T05:49:50;25;25;
63305;PMS5003;50735;52.060;1.248;2023-05-07T05:52:22;30;28;
63305;PMS5003;50735;52.060;1.248;2023-05-07T05:54:54;36;27;
63305;PMS5003;50735;52.060;1.248;2023-05-07T05:57:26;33;29;
63305;PMS5003;50735;52.060;1.248;2023-05-07T05:59:58;29;26;
63305;PMS5003;50735;52.060;1.248;2023-05-07T06:02:30;27;24;
63305;PMS5003;50735;52.060;1.248;2023-05-07T06:05:03;25;22;
63305;PMS5003;50735;52.060;1.248;2023-05-07T06:07:35;18;18;
63305;PMS5003;50735;52.060;1.248;2023-05-07T06:10:07;21;21;
63305;PMS5003;50735;52.060;1.248;2023-05-07T06:12:39;24;19;
63305;PMS5003;50735;52.060;1.248;2023-05-07T06:15:11;22;21;
63305;PMS5003;50735;52.060;1.248;2023-05-07T06:17:43;26;21;
63305;PMS5003;50735;52.060;1.248;2023-05-07T06:20:14;17;16;
63305;PMS5003;50735;52.060;1.248;2023-05-07T06:22:46;19;19;
63305;PMS5003;50735;52.060;1.248;2023-05-07T06:25:18;15;12;
63305;PMS5003;50735;52.060;1.248;2023-05-07T06:27:50;16;14;
63305;PMS5003;50735;52.060;1.248;2023-05-07T06:30:22;16;13;
63305;PMS5003;50735;52.060;1.248;2023-05-07T06:32:54;13;13;
63305;PMS5003;50735;52.060;1.248;2023-05-07T06:35:25;20;18;
63305;PMS5003;50735;52.060;1.248;2023-05-07T06:37:57;13;13;
63305;PMS5003;50735;52.060;1.248;2023-05-07T06:40:28;14;14;
63305;PMS5003;50735;52.060;1.248;2023-05-07T06:43:00;16;15;
63305;PMS5003;50735;52.060;1.248;2023-05-07T06:45:32;16;14;
63305;PMS5003;50735;52.060;1.248;2023-05-07T06:48:04;15;13;
63305;PMS5003;50735;52.060;1.248;2023-05-07T06:50:36;12;12;
63305;PMS5003;50735;52.060;1.248;2023-05-07T06:53:07;16;13;
63305;PMS5003;50735;52.060;1.248;2023-05-07T06:55:39;18;16;
63305;PMS5003;50735;52.060;1.248;2023-05-07T06:58:11;17;15;
63305;PMS5003;50735;52.060;1.248;2023-05-07T07:00:43;13;13;
63305;PMS5003;50735;52.060;1.248;2023-05-07T07:03:15;16;15;
63305;PMS5003;50735;52.060;1.248;2023-05-07T07:05:46;22;19;
63305;PMS5003;50735;52.060;1.248;2023-05-07T07:08:18;18;16;
63305;PMS5003;50735;52.060;1.248;2023-05-07T07:10:50;21;20;
63305;PMS5003;50735;52.060;1.248;2023-05-07T07:13:22;22;19;
63305;PMS5003;50735;52.060;1.248;2023-05-07T07:15:53;31;27;
63305;PMS5003;50735;52.060;1.248;2023-05-07T07:18:25;20;20;
63305;PMS5003;50735;52.060;1.248;2023-05-07T07:20:58;22;19;
63305;PMS5003;50735;52.060;1.248;2023-05-07T07:23:29;25;23;
63305;PMS5003;50735;52.060;1.248;2023-05-07T07:26:01;18;17;
63305;PMS5003;50735;52.060;1.248;2023-05-07T07:28:33;23;22;
63305;PMS5003;50735;52.060;1.248;2023-05-07T07:31:04;23;20;
63305;PMS5003;50735;52.060;1.248;2023-05-07T07:33:36;29;22;
63305;PMS5003;50735;52.060;1.248;2023-05-07T07:36:09;22;18;
63305;PMS5003;50735;52.060;1.248;2023-05-07T07:38:40;21;21;
63305;PMS5003;50735;52.060;1.248;2023-05-07T07:41:12;17;17;
63305;PMS5003;50735;52.060;1.248;2023-05-07T07:43:44;17;16;
63305;PMS5003;50735;52.060;1.248;2023-05-07T07:46:16;22;19;
63305;PMS5003;50735;52.060;1.248;2023-05-07T07:48:48;22;18;
63305;PMS5003;50735;52.060;1.248;2023-05-07T07:51:19;22;21;
63305;PMS5003;50735;52.060;1.248;2023-05-07T07:53:51;20;16;
63305;PMS5003;50735;52.060;1.248;2023-05-07T07:56:22;16;16;
63305;PMS5003;50735;52.060;1.248;2023-05-07T07:58:54;18;17;
63305;PMS5003;50735;52.060;1.248;2023-05-07T08:01:26;21;18;
63305;PMS5003;50735;52.060;1.248;2023-05-07T08:03:58;23;20;
63305;PMS5003;50735;52.060;1.248;2023-05-07T08:06:29;21;19;
63305;PMS5003;50735;52.060;1.248;2023-05-07T08:09:01;15;14;
63305;PMS5003;50735;52.060;1.248;2023-05-07T08:11:32;18;15;
63305;PMS5003;50735;52.060;1.248;2023-05-07T08:14:04;15;12;
63305;PMS5003;50735;52.060;1.248;2023-05-07T08:16:36;16;16;
63305;PMS5003;50735;52.060;1.248;2023-05-07T08:19:08;19;16;
63305;PMS5003;50735;52.060;1.248;2023-05-07T08:21:40;19;16;
63305;PMS5003;50735;52.060;1.248;2023-05-07T08:24:12;13;13;
63305;PMS5003;50735;52.060;1.248;2023-05-07T08:26:44;16;14;
63305;PMS5003;50735;52.060;1.248;2023-05-07T08:29:16;16;14;
63305;PMS5003;50735;52.060;1.248;2023-05-07T08:31:47;19;16;
63305;PMS5003;50735;52.060;1.248;2023-05-07T08:34:19;15;14;
63305;PMS5003;50735;52.060;1.248;2023-05-07T08:36:51;18;16;
63305;PMS5003;50735;52.060;1.248;2023-05-07T08:39:22;18;16;
63305;PMS5003;50735;52.060;1.248;2023-05-07T08:41:55;17;16;
63305;PMS5003;50735;52.060;1.248;2023-05-07T08:44:27;13;13;
63305;PMS5003;50735;52.060;1.248;2023-05-07T08:47:06;17;16;
63305;PMS5003;50735;52.060;1.248;2023-05-07T08:49:38;18;17;
63305;PMS5003;50735;52.060;1.248;2023-05-07T08:52:11;23;19;
63305;PMS5003;50735;52.060;1.248;2023-05-07T08:54:43;21;18;
63305;PMS5003;50735;52.060;1.248;2023-05-07T08:57:15;19;18;
63305;PMS5003;50735;52.060;1.248;2023-05-07T08:59:47;15;15;
63305;PMS5003;50735;52.060;1.248;2023-05-07T09:02:19;21;19;
63305;PMS5003;50735;52.060;1.248;2023-05-07T09:04:51;19;18;
63305;PMS5003;50735;52.060;1.248;2023-05-07T09:07:23;16;15;
63305;PMS5003;50735;52.060;1.248;2023-05-07T09:09:56;17;15;
63305;PMS5003;50735;52.060;1.248;2023-05-07T09:12:28;21;18;
63305;PMS5003;50735;52.060;1.248;2023-05-07T09:14:59;14;14;
63305;PMS5003;50735;52.060;1.248;2023-05-07T09:17:31;19;17;
63305;PMS5003;50735;52.060;1.248;2023-05-07T09:20:03;15;14;
63305;PMS5003;50735;52.060;1.248;2023-05-07T09:22:36;15;15;
63305;PMS5003;50735;52.060;1.248;2023-05-07T09:25:09;14;14;
63305;PMS5003;50735;52.060;1.248;2023-05-07T09:27:41;17;16;
63305;PMS5003;50735;52.060;1.248;2023-05-07T09:30:13;19;18;
63305;PMS5003;50735;52.060;1.248;2023-05-07T09:32:45;20;18;
63305;PMS5003;50735;52.060;1.248;2023-05-07T09:35:17;18;16;
63305;PMS5003;50735;52.060;1.248;2023-05-07T09:37:49;19;16;
63305;PMS5003;50735;52.060;1.248;2023-05-07T09:40:22;17;12;
63305;PMS5003;50735;52.060;1.248;2023-05-07T09:42:55;15;15;
63305;PMS5003;50735;52.060;1.248;2023-05-07T09:45:27;19;17;
63305;PMS5003;50735;52.060;1.248;2023-05-07T09:47:59;15;15;
63305;PMS5003;50735;52.060;1.248;2023-05-07T09:50:36;15;14;
63305;PMS5003;50735;52.060;1.248;2023-05-07T09:53:11;15;13;
63305;PMS5003;50735;52.060;1.248;2023-05-07T09:55:45;16;13;
63305;PMS5003;50735;52.060;1.248;2023-05-07T09:58:18;15;13;
63305;PMS5003;50735;52.060;1.248;2023-05-07T10:00:50;11;11;
63305;PMS5003;50735;52.060;1.248;2023-05-07T10:03:24;16;16;
63305;PMS5003;50735;52.060;1.248;2023-05-07T10:05:58;16;15;
63305;PMS5003;50735;52.060;1.248;2023-05-07T10:08:32;16;14;
63305;PMS5003;50735;52.060;1.248;2023-05-07T10:11:04;15;15;
63305;PMS5003;50735;52.060;1.248;2023-05-07T10:13:36;10;10;
63305;PMS5003;50735;52.060;1.248;2023-05-07T10:16:08;12;11;
63305;PMS5003;50735;52.060;1.248;2023-05-07T10:18:40;12;12;
63305;PMS5003;50735;52.060;1.248;2023-05-07T10:21:15;11;11;
63305;PMS5003;50735;52.060;1.248;2023-05-07T10:23:50;12;12;
63305;PMS5003;50735;52.060;1.248;2023-05-07T10:26:25;11;11;
63305;PMS5003;50735;52.060;1.248;2023-05-07T10:28:59;9;9;
63305;PMS5003;50735;52.060;1.248;2023-05-07T10:31:42;13;13;
63305;PMS5003;50735;52.060;1.248;2023-05-07T10:34:24;14;13;
63305;PMS5003;50735;52.060;1.248;2023-05-07T10:37:01;10;9;
63305;PMS5003;50735;52.060;1.248;2023-05-07T10:39:34;13;12;
63305;PMS5003;50735;52.060;1.248;2023-05-07T10:42:07;16;11;
63305;PMS5003;50735;52.060;1.248;2023-05-07T10:44:40;11;10;
63305;PMS5003;50735;52.060;1.248;2023-05-07T10:47:12;12;12;
63305;PMS5003;50735;52.060;1.248;2023-05-07T10:50:50;18;12;
63305;PMS5003;50735;52.060;1.248;2023-05-07T10:54:01;15;12;
63305;PMS5003;50735;52.060;1.248;2023-05-07T10:56:50;17;16;
63305;PMS5003;50735;52.060;1.248;2023-05-07T10:59:30;15;13;
63305;PMS5003;50735;52.060;1.248;2023-05-07T11:02:06;13;11;
63305;PMS5003;50735;52.060;1.248;2023-05-07T11:04:39;17;14;
63305;PMS5003;50735;52.060;1.248;2023-05-07T11:07:21;12;12;
63305;PMS5003;50735;52.060;1.248;2023-05-07T11:09:57;12;12;
63305;PMS5003;50735;52.060;1.248;2023-05-07T11:13:04;11;11;
63305;PMS5003;50735;52.060;1.248;2023-05-07T11:15:37;11;10;
63305;PMS5003;50735;52.060;1.248;2023-05-07T11:18:11;11;9;
63305;PMS5003;50735;52.060;1.248;2023-05-07T11:20:46;12;12;
63305;PMS5003;50735;52.060;1.248;2023-05-07T11:24:00;11;9;
63305;PMS5003;50735;52.060;1.248;2023-05-07T11:26:41;12;10;
63305;PMS5003;50735;52.060;1.248;2023-05-07T11:29:15;8;8;
63305;PMS5003;50735;52.060;1.248;2023-05-07T11:31:48;10;10;
63305;PMS5003;50735;52.060;1.248;2023-05-07T11:34:20;12;12;
63305;PMS5003;50735;52.060;1.248;2023-05-07T11:36:54;11;9;
63305;PMS5003;50735;52.060;1.248;2023-05-07T11:39:27;11;11;
63305;PMS5003;50735;52.060;1.248;2023-05-07T11:42:01;12;12;
63305;PMS5003;50735;52.060;1.248;2023-05-07T11:44:41;15;15;
63305;PMS5003;50735;52.060;1.248;2023-05-07T11:47:17;11;11;
63305;PMS5003;50735;52.060;1.248;2023-05-07T11:49:49;10;10;
63305;PMS5003;50735;52.060;1.248;2023-05-07T11:52:23;18;15;
63305;PMS5003;50735;52.060;1.248;2023-05-07T11:54:56;13;12;
63305;PMS5003;50735;52.060;1.248;2023-05-07T11:57:29;12;11;
63305;PMS5003;50735;52.060;1.248;2023-05-07T12:00:02;11;11;
63305;PMS5003;50735;52.060;1.248;2023-05-07T12:02:35;13;10;
63305;PMS5003;50735;52.060;1.248;2023-05-07T12:05:06;13;11;
63305;PMS5003;50735;52.060;1.248;2023-05-07T12:07:38;9;9;
63305;PMS5003;50735;52.060;1.248;2023-05-07T12:10:11;11;11;
63305;PMS5003;50735;52.060;1.248;2023-05-07T12:12:45;14;14;
63305;PMS5003;50735;52.060;1.248;2023-05-07T12:15:17;12;12;
63305;PMS5003;50735;52.060;1.248;2023-05-07T12:17:48;10;10;
63305;PMS5003;50735;52.060;1.248;2023-05-07T12:20:21;17;17;
63305;PMS5003;50735;52.060;1.248;2023-05-07T12:22:52;10;10;
63305;PMS5003;50735;52.060;1.248;2023-05-07T12:22:53;10;10;
63305;PMS5003;50735;52.060;1.248;2023-05-07T12:25:26;12;10;
63305;PMS5003;50735;52.060;1.248;2023-05-07T12:27:59;11;11;
63305;PMS5003;50735;52.060;1.248;2023-05-07T12:30:32;11;9;
63305;PMS5003;50735;52.060;1.248;2023-05-07T12:33:08;15;12;
63305;PMS5003;50735;52.060;1.248;2023-05-07T12:35:41;12;11;
63305;PMS5003;50735;52.060;1.248;2023-05-07T12:38:15;16;16;
63305;PMS5003;50735;52.060;1.248;2023-05-07T12:40:48;11;11;
63305;PMS5003;50735;52.060;1.248;2023-05-07T12:43:24;10;10;
63305;PMS5003;50735;52.060;1.248;2023-05-07T12:45:57;17;14;
63305;PMS5003;50735;52.060;1.248;2023-05-07T12:48:32;11;11;
63305;PMS5003;50735;52.060;1.248;2023-05-07T12:51:05;13;11;
63305;PMS5003;50735;52.060;1.248;2023-05-07T12:53:39;8;8;
63305;PMS5003;50735;52.060;1.248;2023-05-07T12:56:11;10;10;
63305;PMS5003;50735;52.060;1.248;2023-05-07T12:58:48;10;10;
63305;PMS5003;50735;52.060;1.248;2023-05-07T13:01:20;10;10;
63305;PMS5003;50735;52.060;1.248;2023-05-07T13:03:51;9;8;
63305;PMS5003;50735;52.060;1.248;2023-05-07T13:06:23;11;10;
63305;PMS5003;50735;52.060;1.248;2023-05-07T13:08:55;18;15;
63305;PMS5003;50735;52.060;1.248;2023-05-07T13:11:27;13;10;
63305;PMS5003;50735;52.060;1.248;2023-05-07T13:13:58;13;11;
63305;PMS5003;50735;52.060;1.248;2023-05-07T13:16:30;8;8;
63305;PMS5003;50735;52.060;1.248;2023-05-07T13:19:02;12;11;
63305;PMS5003;50735;52.060;1.248;2023-05-07T13:21:33;13;11;
63305;PMS5003;50735;52.060;1.248;2023-05-07T13:24:05;10;10;
63305;PMS5003;50735;52.060;1.248;2023-05-07T13:26:37;12;10;
63305;PMS5003;50735;52.060;1.248;2023-05-07T13:29:09;11;10;
63305;PMS5003;50735;52.060;1.248;2023-05-07T13:31:41;8;8;
63305;PMS5003;50735;52.060;1.248;2023-05-07T13:34:12;12;10;
63305;PMS5003;50735;52.060;1.248;2023-05-07T13:36:44;12;12;
63305;PMS5003;50735;52.060;1.248;2023-05-07T13:39:16;12;11;
63305;PMS5003;50735;52.060;1.248;2023-05-07T13:41:48;10;7;
63305;PMS5003;50735;52.060;1.248;2023-05-07T13:44:19;13;13;
63305;PMS5003;50735;52.060;1.248;2023-05-07T13:46:51;22;19;
63305;PMS5003;50735;52.060;1.248;2023-05-07T13:49:23;20;18;
63305;PMS5003;50735;52.060;1.248;2023-05-07T13:51:55;22;22;
63305;PMS5003;50735;52.060;1.248;2023-05-07T13:54:27;26;26;
63305;PMS5003;50735;52.060;1.248;2023-05-07T13:56:59;25;24;
63305;PMS5003;50735;52.060;1.248;2023-05-07T13:59:32;25;21;
63305;PMS5003;50735;52.060;1.248;2023-05-07T14:02:05;22;22;
63305;PMS5003;50735;52.060;1.248;2023-05-07T14:04:37;19;19;
63305;PMS5003;50735;52.060;1.248;2023-05-07T14:07:09;27;24;
63305;PMS5003;50735;52.060;1.248;2023-05-07T14:09:41;26;26;
63305;PMS5003;50735;52.060;1.248;2023-05-07T14:12:13;25;22;
63305;PMS5003;50735;52.060;1.248;2023-05-07T14:14:45;28;26;
63305;PMS5003;50735;52.060;1.248;2023-05-07T14:17:17;24;22;
63305;PMS5003;50735;52.060;1.248;2023-05-07T14:19:49;18;18;
63305;PMS5003;50735;52.060;1.248;2023-05-07T14:22:21;23;22;
63305;PMS5003;50735;52.060;1.248;2023-05-07T14:24:53;25;23;
63305;PMS5003;50735;52.060;1.248;2023-05-07T14:27:25;22;21;
63305;PMS5003;50735;52.060;1.248;2023-05-07T14:29:57;30;27;
63305;PMS5003;50735;52.060;1.248;2023-05-07T14:32:29;22;20;
63305;PMS5003;50735;52.060;1.248;2023-05-07T14:35:01;21;20;
63305;PMS5003;50735;52.060;1.248;2023-05-07T14:37:33;23;21;
63305;PMS5003;50735;52.060;1.248;2023-05-07T14:40:06;27;25;
63305;PMS5003;50735;52.060;1.248;2023-05-07T14:42:38;22;20;
63305;PMS5003;50735;52.060;1.248;2023-05-07T14:45:10;22;19;
63305;PMS5003;50735;52.060;1.248;2023-05-07T14:47:42;23;20;
63305;PMS5003;50735;52.060;1.248;2023-05-07T14:50:14;22;21;
63305;PMS5003;50735;52.060;1.248;2023-05-07T14:52:47;19;18;
63305;PMS5003;50735;52.060;1.248;2023-05-07T14:55:18;20;20;
63305;PMS5003;50735;52.060;1.248;2023-05-07T14:57:50;19;17;
63305;PMS5003;50735;52.060;1.248;2023-05-07T15:00:22;22;18;
63305;PMS5003;50735;52.060;1.248;2023-05-07T15:02:55;23;20;
63305;PMS5003;50735;52.060;1.248;2023-05-07T15:05:32;20;19;
63305;PMS5003;50735;52.060;1.248;2023-05-07T15:08:04;20;17;
63305;PMS5003;50735;52.060;1.248;2023-05-07T15:10:36;17;17;
63305;PMS5003;50735;52.060;1.248;2023-05-07T15:13:08;19;19;
63305;PMS5003;50735;52.060;1.248;2023-05-07T15:15:41;16;14;
63305;PMS5003;50735;52.060;1.248;2023-05-07T15:18:14;17;17;
63305;PMS5003;50735;52.060;1.248;2023-05-07T15:20:46;18;17;
63305;PMS5003;50735;52.060;1.248;2023-05-07T15:23:18;20;18;
63305;PMS5003;50735;52.060;1.248;2023-05-07T15:25:50;19;19;
63305;PMS5003;50735;52.060;1.248;2023-05-07T15:28:22;19;16;
63305;PMS5003;50735;52.060;1.248;2023-05-07T15:30:54;19;19;
63305;PMS5003;50735;52.060;1.248;2023-05-07T15:33:26;25;20;
63305;PMS5003;50735;52.060;1.248;2023-05-07T15:35:58;28;25;
63305;PMS5003;50735;52.060;1.248;2023-05-07T15:38:29;24;21;
63305;PMS5003;50735;52.060;1.248;2023-05-07T15:41:02;24;22;
63305;PMS5003;50735;52.060;1.248;2023-05-07T15:43:36;26;21;
63305;PMS5003;50735;52.060;1.248;2023-05-07T15:46:17;22;19;
63305;PMS5003;50735;52.060;1.248;2023-05-07T15:48:49;19;16;
63305;PMS5003;50735;52.060;1.248;2023-05-07T15:51:21;26;23;
63305;PMS5003;50735;52.060;1.248;2023-05-07T15:53:53;22;20;
63305;PMS5003;50735;52.060;1.248;2023-05-07T15:56:25;23;22;
63305;PMS5003;50735;52.060;1.248;2023-05-07T15:58:57;19;19;
63305;PMS5003;50735;52.060;1.248;2023-05-07T16:01:29;22;22;
63305;PMS5003;50735;52.060;1.248;2023-05-07T16:04:00;25;22;
63305;PMS5003;50735;52.060;1.248;2023-05-07T16:06:33;21;21;
63305;PMS5003;50735;52.060;1.248;2023-05-07T16:09:05;23;23;
63305;PMS5003;50735;52.060;1.248;2023-05-07T16:11:37;21;20;
63305;PMS5003;50735;52.060;1.248;2023-05-07T16:14:09;23;21;
63305;PMS5003;50735;52.060;1.248;2023-05-07T16:16:41;26;24;
63305;PMS5003;50735;52.060;1.248;2023-05-07T16:19:12;23;20;
63305;PMS5003;50735;52.060;1.248;2023-05-07T16:21:44;23;23;
63305;PMS5003;50735;52.060;1.248;2023-05-07T16:24:16;30;25;
63305;PMS5003;50735;52.060;1.248;2023-05-07T16:26:49;24;21;
63305;PMS5003;50735;52.060;1.248;2023-05-07T16:29:21;30;28;
63305;PMS5003;50735;52.060;1.248;2023-05-07T16:31:53;22;22;
63305;PMS5003;50735;52.060;1.248;2023-05-07T16:34:25;24;23;
63305;PMS5003;50735;52.060;1.248;2023-05-07T16:36:57;26;22;
63305;PMS5003;50735;52.060;1.248;2023-05-07T16:39:29;23;21;
63305;PMS5003;50735;52.060;1.248;2023-05-07T16:42:00;24;20;
63305;PMS5003;50735;52.060;1.248;2023-05-07T16:44:32;21;20;
63305;PMS5003;50735;52.060;1.248;2023-05-07T16:47:03;25;23;
63305;PMS5003;50735;52.060;1.248;2023-05-07T16:49:35;19;19;
63305;PMS5003;50735;52.060;1.248;2023-05-07T16:52:07;18;18;
63305;PMS5003;50735;52.060;1.248;2023-05-07T16:54:39;29;27;